Time;durP1;ratioP1;P1;durP2;ratioP2;P2;SDS_P1;SDS_P2;PMS_P1;PMS_P2;Temp;Humidity;BMP_temperature;BMP_pressure;BME280_temperature;BME280_humidity;BME280_pressure;Samples;Min_cycle;Max_cycle;Signal;HPM_P1;HPM_P2
2023/08/04 00:01:08;;;;;;;6.83;3.80;;;;;;;21.46;76.11;99877.19;1640398;87;21100;-65
2023/08/04 00:03:38;;;;;;;7.62;4.12;;;;;;;21.47;76.02;99880.80;1606971;89;21078;-65
2023/08/04 00:06:10;;;;;;;8.60;4.37;;;;;;;21.46;75.83;99879.13;1640369;87;21117;-65
2023/08/04 00:08:39;;;;;;;7.55;4.22;;;;;;;21.45;75.88;99877.44;1606855;89;21142;-65
2023/08/04 00:11:08;;;;;;;7.42;4.50;;;;;;;21.44;75.91;99882.73;1607000;89;21047;-64
2023/08/04 00:13:36;;;;;;;4.47;3.60;;;;;;;21.44;75.83;99885.52;1606778;89;21117;-64
2023/08/04 00:16:09;;;;;;;6.95;4.10;;;;;;;21.40;75.75;99878.84;1640477;87;21238;-65
2023/08/04 00:18:39;;;;;;;4.65;3.47;;;;;;;21.37;75.85;99885.81;1607022;89;21552;-65
2023/08/04 00:21:09;;;;;;;6.92;4.15;;;;;;;21.37;75.97;99882.19;1606873;89;21094;-65
2023/08/04 00:23:39;;;;;;;5.53;3.90;;;;;;;21.36;76.07;99888.88;1607002;89;21054;-65
2023/08/04 00:26:08;;;;;;;10.08;4.58;;;;;;;21.34;76.15;99885.54;1619783;87;21075;-64
2023/08/04 00:28:37;;;;;;;7.70;4.30;;;;;;;21.34;76.21;99892.51;1584271;90;21090;-65
2023/08/04 00:31:06;;;;;;;11.18;4.40;;;;;;;21.33;75.99;99888.88;1584193;90;21536;-65
2023/08/04 00:33:36;;;;;;;10.23;5.25;;;;;;;21.31;76.22;99884.15;1583992;90;21094;-65
2023/08/04 00:36:05;;;;;;;10.28;4.50;;;;;;;21.31;76.45;99888.89;1584086;90;21074;-64
2023/08/04 00:38:34;;;;;;;10.15;4.53;;;;;;;21.29;76.47;99885.55;1584267;89;21285;-64
2023/08/04 00:41:04;;;;;;;12.20;4.60;;;;;;;21.27;76.38;99886.39;1584190;90;21102;-65
2023/08/04 00:43:34;;;;;;;8.20;4.30;;;;;;;21.24;76.44;99884.16;1584123;90;21532;-64
2023/08/04 00:46:04;;;;;;;6.80;4.03;;;;;;;21.21;76.51;99880.79;1584007;90;21466;-65
2023/08/04 00:48:35;;;;;;;7.75;4.05;;;;;;;21.17;76.60;99883.02;1584189;89;21486;-65
2023/08/04 00:51:05;;;;;;;7.08;3.83;;;;;;;21.17;76.69;99883.02;1583568;91;21061;-63
2023/08/04 00:53:35;;;;;;;7.15;4.20;;;;;;;21.18;76.57;99887.48;1584052;90;21110;-64
2023/08/04 00:56:04;;;;;;;4.12;3.70;;;;;;;21.16;76.62;99885.53;1584242;90;21078;-66
2023/08/04 00:58:34;;;;;;;7.05;4.17;;;;;;;21.11;76.65;99882.19;1584017;90;21110;-66
2023/08/04 01:01:03;;;;;;;7.08;4.20;;;;;;;21.11;76.71;99882.75;1584054;90;21529;-64
2023/08/04 01:03:33;;;;;;;5.45;3.87;;;;;;;21.10;76.92;99876.34;1584343;90;21565;-65
2023/08/04 01:06:27;;;;;;;5.85;4.10;;;;;;;21.08;76.83;99872.17;1584209;90;21075;-64
2023/08/04 01:09:12;;;;;;;5.90;3.95;;;;;;;21.06;76.87;99871.05;1583948;90;21083;-64
2023/08/04 01:11:50;;;;;;;9.18;4.35;;;;;;;21.03;76.86;99877.74;1583944;90;21543;-64
2023/08/04 01:14:19;;;;;;;;;;;;;;;21.00;76.83;99872.17;1586605;90;21059;-64
2023/08/04 01:16:48;;;;;;;5.92;4.20;;;;;;;21.00;77.03;99872.17;1581488;90;20499;-65
2023/08/04 01:19:18;;;;;;;6.37;3.92;;;;;;;20.98;77.09;99876.35;1584332;90;21225;-65
2023/08/04 01:21:47;;;;;;;5.50;4.08;;;;;;;20.96;77.21;99876.63;1584109;90;21106;-65
2023/08/04 01:24:16;;;;;;;6.95;4.15;;;;;;;20.95;77.28;99877.74;1584319;90;21090;-63
2023/08/04 01:26:45;;;;;;;7.40;3.90;;;;;;;20.96;77.37;99883.59;1584101;90;21416;-64
2023/08/04 01:29:14;;;;;;;6.62;3.98;;;;;;;20.95;77.15;99877.74;1584241;90;21094;-64
2023/08/04 01:31:44;;;;;;;5.28;3.98;;;;;;;20.96;77.21;99879.97;1584110;90;21090;-65
2023/08/04 01:34:14;;;;;;;7.10;4.25;;;;;;;20.94;77.44;99884.42;1584321;90;21109;-64
2023/08/04 01:36:45;;;;;;;6.42;4.20;;;;;;;20.95;77.38;99876.35;1584128;90;21078;-65
2023/08/04 01:39:15;;;;;;;8.93;3.85;;;;;;;20.96;77.42;99889.16;1562880;90;21086;-65
2023/08/04 01:41:44;;;;;;;7.53;4.12;;;;;;;20.94;77.33;99888.61;1584056;90;21107;-64
2023/08/04 01:44:14;;;;;;;6.67;4.00;;;;;;;20.91;77.27;99889.16;1584162;90;21553;-65
2023/08/04 01:46:44;;;;;;;5.47;4.10;;;;;;;20.89;77.45;99888.61;1584700;90;21491;-64
2023/08/04 01:49:13;;;;;;;6.58;3.87;;;;;;;20.91;77.45;99887.77;1584318;90;21174;-65
2023/08/04 01:51:43;;;;;;;4.62;3.62;;;;;;;20.91;77.49;99890.55;1584283;90;21518;-64
2023/08/04 01:54:13;;;;;;;5.72;3.92;;;;;;;20.89;77.30;99888.05;1584324;90;21072;-65
2023/08/04 01:56:43;;;;;;;7.30;4.00;;;;;;;20.92;77.00;99888.61;1584356;90;21200;-64
2023/08/04 01:59:13;;;;;;;6.80;4.20;;;;;;;20.92;77.00;99888.05;1584061;90;21095;-65
2023/08/04 02:01:42;;;;;;;6.08;4.22;;;;;;;20.93;76.91;99893.06;1584168;90;21043;-64
2023/08/04 02:04:13;;;;;;;8.15;4.10;;;;;;;20.92;76.92;99885.83;1584102;90;21098;-65
2023/08/04 02:06:42;;;;;;;5.37;3.95;;;;;;;20.92;76.91;99878.86;1584310;90;21110;-64
2023/08/04 02:09:12;;;;;;;6.25;3.65;;;;;;;20.92;76.91;99888.61;1584220;90;21151;-64
2023/08/04 02:11:41;;;;;;;4.83;4.08;;;;;;;20.87;76.92;99889.44;1584101;90;21494;-64
2023/08/04 02:14:11;;;;;;;4.83;3.77;;;;;;;20.85;76.73;99884.70;1584324;90;21342;-65
2023/08/04 02:16:40;;;;;;;6.47;4.15;;;;;;;20.82;76.69;99889.44;1584266;90;21972;-65
2023/08/04 02:19:09;;;;;;;7.90;4.22;;;;;;;20.82;76.65;99887.49;1584091;90;21527;-64
2023/08/04 02:21:39;;;;;;;9.78;3.75;;;;;;;20.85;76.43;99890.28;1584292;90;21078;-64
2023/08/04 02:24:09;;;;;;;8.50;4.50;;;;;;;20.88;76.19;99884.15;1584105;90;21150;-66
2023/08/04 02:26:38;;;;;;;7.87;4.37;;;;;;;20.90;75.92;99884.71;1585479;90;21091;-64
2023/08/04 02:29:07;;;;;;;5.12;3.98;;;;;;;20.90;75.76;99883.31;1586202;90;21051;-67
2023/08/04 02:31:37;;;;;;;6.97;4.50;;;;;;;20.92;75.35;99882.48;1586032;90;21513;-64
2023/08/04 02:34:06;;;;;;;6.92;4.45;;;;;;;20.93;75.20;99888.33;1586183;90;21134;-64
2023/08/04 02:36:36;;;;;;;5.10;4.10;;;;;;;20.90;75.28;99891.67;1586002;90;21062;-65
2023/08/04 02:39:05;;;;;;;6.97;3.70;;;;;;;20.92;75.27;99892.78;1586232;89;21079;-65
2023/08/04 02:41:35;;;;;;;6.92;4.25;;;;;;;20.93;75.13;99893.90;1586030;89;21506;-65
2023/08/04 02:44:06;;;;;;;6.92;3.85;;;;;;;20.96;74.85;99893.34;1586190;89;21150;-64
2023/08/04 02:46:36;;;;;;;4.90;4.20;;;;;;;21.00;74.58;99906.16;1586192;90;21082;-65
2023/08/04 02:49:05;;;;;;;7.08;4.10;;;;;;;21.05;74.33;99905.59;1586046;89;21086;-64
2023/08/04 02:51:34;;;;;;;6.10;3.98;;;;;;;21.08;74.03;99902.81;1586061;90;21125;-65
2023/08/04 02:54:04;;;;;;;6.30;3.77;;;;;;;21.11;73.70;99904.48;1586121;89;21102;-64
2023/08/04 02:56:33;;;;;;;6.42;3.62;;;;;;;21.15;73.48;99908.94;1586168;90;21142;-64
2023/08/04 02:59:02;;;;;;;6.70;3.95;;;;;;;21.18;73.39;99912.00;1586045;89;21555;-64
2023/08/04 03:01:31;;;;;;;5.90;3.67;;;;;;;21.18;73.27;99909.22;1585947;90;21110;-66
2023/08/04 03:04:01;;;;;;;5.37;3.87;;;;;;;21.22;73.14;99915.06;1586186;90;21086;-64
2023/08/04 03:06:32;;;;;;;6.70;3.90;;;;;;;21.22;72.90;99910.88;1586360;90;21125;-63
2023/08/04 03:09:02;;;;;;;11.85;4.50;;;;;;;21.25;72.62;99917.32;1586059;90;21062;-63
2023/08/04 03:11:31;;;;;;;6.17;3.83;;;;;;;21.27;72.35;99917.87;1585946;90;21115;-64
2023/08/04 03:14:00;;;;;;;7.12;4.30;;;;;;;21.27;72.65;99916.48;1586125;90;21503;-65
2023/08/04 03:16:30;;;;;;;5.35;3.60;;;;;;;21.24;73.06;99924.01;1586286;90;21062;-65
2023/08/04 03:19:00;;;;;;;5.12;3.30;;;;;;;21.21;73.32;99916.17;1616915;87;21071;-65
2023/08/04 03:21:30;;;;;;;5.92;3.92;;;;;;;21.22;73.10;99920.63;1605698;89;21100;-64
2023/08/04 03:24:00;;;;;;;5.85;4.15;;;;;;;21.25;72.72;99926.23;1616772;89;21520;-65
2023/08/04 03:26:29;;;;;;;8.50;4.12;;;;;;;21.24;73.31;99921.78;1607822;88;21519;-65
2023/08/04 03:29:00;;;;;;;7.83;4.28;;;;;;;21.23;73.25;99924.28;1584260;90;21090;-64
2023/08/04 03:31:29;;;;;;;5.80;3.85;;;;;;;21.24;72.83;99924.01;1584189;90;21802;-66
2023/08/04 03:33:58;;;;;;;8.48;3.72;;;;;;;21.27;72.83;99918.44;1584053;90;21130;-66
2023/08/04 03:36:28;;;;;;;6.58;4.10;;;;;;;21.31;72.94;99923.72;1584085;90;21506;-66
2023/08/04 03:38:57;;;;;;;9.35;4.15;;;;;;;21.33;72.87;99930.69;1584084;89;21522;-66
2023/08/04 03:41:26;;;;;;;6.08;3.80;;;;;;;21.34;72.57;99925.95;1583388;91;21497;-66
2023/08/04 03:43:55;;;;;;;6.45;5.10;;;;;;;21.34;72.31;99926.78;1573222;91;21194;-65
2023/08/04 03:46:25;;;;;;;4.40;3.85;;;;;;;21.35;72.17;99931.80;1583428;91;21549;-66
2023/08/04 03:48:55;;;;;;;8.15;3.90;;;;;;;21.37;71.96;99930.96;1572978;91;21073;-66
2023/08/04 03:51:25;;;;;;;7.08;3.72;;;;;;;21.38;71.83;99931.24;1568319;91;21125;-66
2023/08/04 03:53:54;;;;;;;7.00;3.90;;;;;;;21.40;71.69;99934.02;1572942;91;21072;-65
2023/08/04 03:56:23;;;;;;;8.23;4.00;;;;;;;21.43;71.55;99935.41;1584168;90;21047;-66
2023/08/04 03:58:53;;;;;;;6.80;4.10;;;;;;;21.47;71.44;99935.16;1584245;90;21079;-65
2023/08/04 04:01:22;;;;;;;5.35;4.08;;;;;;;21.50;71.36;99940.17;1584108;90;21093;-65
2023/08/04 04:03:52;;;;;;;5.78;4.08;;;;;;;21.50;71.32;99937.39;1583995;90;21123;-65
2023/08/04 04:06:21;;;;;;;5.62;4.30;;;;;;;21.53;71.25;99941.01;1584412;90;21197;-65
2023/08/04 04:08:51;;;;;;;5.45;4.30;;;;;;;21.55;71.05;99949.92;1584074;90;21090;-65
2023/08/04 04:11:20;;;;;;;6.87;4.65;;;;;;;21.58;70.95;99947.97;1584103;90;21571;-64
2023/08/04 04:13:49;;;;;;;5.28;3.92;;;;;;;21.62;70.89;99947.68;1584236;90;21119;-65
2023/08/04 04:16:18;;;;;;;7.78;4.20;;;;;;;21.63;70.96;99954.93;1584002;90;21086;-66
2023/08/04 04:18:48;;;;;;;4.95;4.15;;;;;;;21.67;70.83;99951.86;1583954;89;21478;-66
2023/08/04 04:21:18;;;;;;;4.87;4.00;;;;;;;21.70;70.70;99951.29;1584097;90;21119;-65
2023/08/04 04:23:48;;;;;;;5.55;4.10;;;;;;;21.72;70.62;99947.66;1584149;89;21114;-64
2023/08/04 04:26:17;;;;;;;5.90;4.40;;;;;;;21.76;70.37;99937.61;1584194;89;21125;-66
2023/08/04 04:28:47;;;;;;;8.40;4.08;;;;;;;21.80;70.22;99942.90;1584036;90;21490;-64
2023/08/04 04:31:16;;;;;;;4.58;3.92;;;;;;;21.83;70.24;99935.36;1584121;90;21093;-65
2023/08/04 04:33:45;;;;;;;6.47;4.20;;;;;;;21.91;70.09;99926.13;1584173;89;21111;-64
2023/08/04 04:36:16;;;;;;;5.22;4.22;;;;;;;21.95;69.91;99930.02;1584103;90;21514;-64
2023/08/04 04:38:45;;;;;;;8.38;4.17;;;;;;;22.00;69.70;99928.61;1584230;90;21075;-65
2023/08/04 04:41:15;;;;;;;6.22;4.20;;;;;;;22.06;69.54;99935.31;1584208;90;21074;-65
2023/08/04 04:43:44;;;;;;;11.40;6.62;;;;;;;22.10;69.35;99936.41;1583943;90;21134;-64
2023/08/04 04:46:13;;;;;;;6.92;5.15;;;;;;;22.16;69.22;99938.66;1568218;91;21485;-65
2023/08/04 04:48:42;;;;;;;5.72;4.20;;;;;;;22.23;69.16;99942.53;1572922;91;21127;-65
2023/08/04 04:51:11;;;;;;;10.10;4.60;;;;;;;22.26;68.97;99941.40;1584068;90;21805;-65
2023/08/04 04:53:41;;;;;;;6.92;4.70;;;;;;;22.29;68.86;99939.43;1584332;90;21079;-65
2023/08/04 04:56:11;;;;;;;6.25;4.35;;;;;;;22.35;68.74;99943.87;1584148;90;21090;-64
2023/08/04 04:58:40;;;;;;;7.53;4.75;;;;;;;22.41;68.65;99949.70;1584278;90;21099;-67
2023/08/04 05:01:09;;;;;;;8.68;5.28;;;;;;;22.45;68.51;99945.21;1584153;89;21209;-65
2023/08/04 05:03:39;;;;;;;7.15;4.60;;;;;;;22.53;68.51;99951.31;1584126;89;21087;-64
2023/08/04 05:06:08;;;;;;;8.08;5.22;;;;;;;22.58;68.34;99954.08;1583626;91;21481;-67
2023/08/04 05:08:38;;;;;;;9.13;4.75;;;;;;;22.63;68.23;99953.48;1584259;90;21071;-65
2023/08/04 05:11:08;;;;;;;7.37;4.80;;;;;;;22.70;68.15;99959.59;1584278;90;21498;-64
2023/08/04 05:13:37;;;;;;;9.15;4.70;;;;;;;22.78;67.88;99957.61;1584176;90;21091;-64
2023/08/04 05:16:06;;;;;;;7.67;4.50;;;;;;;22.87;67.74;99959.83;1584263;90;21107;-64
2023/08/04 05:18:34;;;;;;;8.18;5.00;;;;;;;22.95;67.66;99962.84;1584317;90;21042;-64
2023/08/04 05:21:03;;;;;;;7.78;4.85;;;;;;;23.03;67.47;99958.59;1584156;90;21231;-65
2023/08/04 05:23:32;;;;;;;7.67;4.60;;;;;;;23.14;67.28;99956.55;1584263;90;21091;-66
2023/08/04 05:26:02;;;;;;;7.40;5.08;;;;;;;23.31;67.22;99959.76;1584312;89;21091;-65
2023/08/04 05:28:32;;;;;;;12.58;5.35;;;;;;;23.53;66.88;99963.51;1586242;90;21118;-65
2023/08/04 05:31:04;;;;;;;7.50;4.90;;;;;;;23.80;65.81;99969.42;1586144;90;21147;-65
2023/08/04 05:33:32;;;;;;;8.15;4.92;;;;;;;24.08;64.98;99974.73;1586103;90;21074;-66
2023/08/04 05:36:02;;;;;;;7.62;4.50;;;;;;;24.41;64.11;99973.53;1562225;90;21213;-66
2023/08/04 05:38:32;;;;;;;5.05;4.47;;;;;;;24.73;62.97;99969.48;1586051;90;21560;-65
2023/08/04 05:41:02;;;;;;;6.40;4.65;;;;;;;24.99;61.84;99970.53;1586017;90;21571;-66
2023/08/04 05:43:31;;;;;;;6.40;4.90;;;;;;;25.14;61.04;99966.91;1585912;90;21138;-65
2023/08/04 05:46:05;;;;;;;9.28;5.10;;;;;;;25.23;60.70;99964.25;1586149;90;21156;-65
2023/08/04 05:48:35;;;;;;;8.03;4.45;;;;;;;25.28;60.30;99959.95;1586115;90;21051;-65
2023/08/04 05:51:05;;;;;;;7.87;4.37;;;;;;;25.30;60.47;99960.48;1586031;90;21518;-63
2023/08/04 05:53:35;;;;;;;7.80;4.60;;;;;;;25.34;60.37;99957.91;1586081;90;21142;-65
2023/08/04 05:56:04;;;;;;;7.95;5.20;;;;;;;25.40;60.00;99952.50;1586097;90;21117;-64
2023/08/04 05:58:33;;;;;;;8.63;4.65;;;;;;;25.44;59.82;99949.34;1586284;90;21055;-64
2023/08/04 06:01:02;;;;;;;6.78;4.80;;;;;;;25.49;59.32;99953.45;1586244;90;21074;-63
2023/08/04 06:03:31;;;;;;;7.20;5.10;;;;;;;25.52;59.20;99948.06;1586143;90;21115;-65
2023/08/04 06:06:01;;;;;;;12.30;4.87;;;;;;;25.56;59.26;99947.71;1586129;90;21113;-64
2023/08/04 06:08:30;;;;;;;11.80;4.87;;;;;;;25.58;58.81;99953.84;1586028;90;21071;-63
2023/08/04 06:11:00;;;;;;;12.28;8.20;;;;;;;25.60;58.71;99950.73;1585970;90;21074;-65
2023/08/04 06:13:29;;;;;;;10.82;5.58;;;;;;;25.63;58.68;99947.31;1562277;90;21202;-66
2023/08/04 06:15:57;;;;;;;7.75;4.75;;;;;;;25.68;58.81;99949.22;1586134;90;21097;-65
2023/08/04 06:18:26;;;;;;;6.92;4.78;;;;;;;25.77;58.89;99947.36;1586142;90;21083;-65
2023/08/04 06:20:56;;;;;;;11.35;5.08;;;;;;;25.86;58.91;99951.95;1586187;90;21147;-66
2023/08/04 06:23:26;;;;;;;10.32;7.37;;;;;;;25.98;58.96;99952.84;1562298;90;21514;-64
2023/08/04 06:25:56;;;;;;;7.47;4.97;;;;;;;26.14;58.80;99966.03;1586250;90;21085;-65
2023/08/04 06:28:25;;;;;;;7.50;4.70;;;;;;;26.25;58.21;99969.47;1612744;87;21595;-65
2023/08/04 06:30:54;;;;;;;7.83;4.90;;;;;;;26.28;57.86;99974.46;1584237;90;21070;-65
2023/08/04 06:33:25;;;;;;;9.68;4.95;;;;;;;26.30;57.92;99972.17;1584042;89;21157;-64
2023/08/04 06:35:54;;;;;;;10.50;5.47;;;;;;;26.31;57.65;99971.86;1584081;90;21597;-64
2023/08/04 06:38:24;;;;;;;8.30;4.95;;;;;;;26.37;57.38;99985.26;1583725;91;21078;-65
2023/08/04 06:40:54;;;;;;;8.75;5.00;;;;;;;26.44;57.60;99980.05;1584170;90;21074;-64
2023/08/04 06:43:24;;;;;;;8.65;4.72;;;;;;;26.64;57.70;99973.98;1584130;90;21111;-64
2023/08/04 06:45:52;;;;;;;9.88;5.33;;;;;;;26.96;57.22;99974.41;1584001;90;21134;-64
2023/08/04 06:48:24;;;;;;;6.00;4.80;;;;;;;27.34;54.85;99981.98;1583994;90;21070;-65
2023/08/04 06:50:52;;;;;;;11.85;9.08;;;;;;;27.63;53.08;99977.91;1584121;90;21102;-63
2023/08/04 06:53:22;;;;;;;11.33;5.28;;;;;;;27.92;53.21;99987.27;1584069;90;21086;-66
2023/08/04 06:55:51;;;;;;;5.67;4.30;;;;;;;28.27;51.95;99986.91;1584213;90;21114;-64
2023/08/04 06:58:20;;;;;;;8.93;4.80;;;;;;;28.59;51.09;99987.91;1583997;90;21074;-65
2023/08/04 07:00:49;;;;;;;7.95;4.70;;;;;;;28.92;50.45;99996.00;1584227;90;21508;-63
2023/08/04 07:03:19;;;;;;;10.40;5.42;;;;;;;29.15;49.59;99991.87;1583913;90;21511;-64
2023/08/04 07:05:48;;;;;;;17.32;4.87;;;;;;;29.47;49.53;99989.75;1584154;90;21175;-65
2023/08/04 07:08:17;;;;;;;10.08;4.97;;;;;;;29.81;48.53;99986.86;1584028;90;21535;-65
2023/08/04 07:10:46;;;;;;;24.50;5.50;;;;;;;30.11;47.57;99992.06;1584180;90;21212;-65
2023/08/04 07:13:15;;;;;;;12.15;5.08;;;;;;;30.42;46.47;99994.58;1584214;90;21166;-64
2023/08/04 07:15:57;;;;;;;6.70;4.53;;;;;;;30.71;46.02;99998.65;1562660;90;21103;-65
2023/08/04 07:18:27;;;;;;;7.22;4.72;;;;;;;30.97;44.08;100004.13;1562557;90;21580;-65
2023/08/04 07:21:08;;;;;;;11.05;5.20;;;;;;;31.04;44.49;100009.48;1584025;90;21074;-63
2023/08/04 07:23:37;;;;;;;12.40;5.55;;;;;;;31.16;44.52;99998.85;1584178;90;21082;-64
2023/08/04 07:26:06;;;;;;;8.20;4.90;;;;;;;31.31;44.05;100002.50;1584165;90;21138;-64
2023/08/04 07:28:35;;;;;;;13.13;5.60;;;;;;;31.52;43.34;100002.48;1583956;90;21103;-64
2023/08/04 07:31:07;;;;;;;8.58;4.55;;;;;;;31.67;43.14;100004.66;1584102;90;21118;-65
2023/08/04 07:33:37;;;;;;;7.33;4.80;;;;;;;31.81;42.64;100003.80;1584137;90;21046;-64
2023/08/04 07:36:05;;;;;;;13.78;5.67;;;;;;;31.81;42.27;100005.80;1583993;90;21094;-64
2023/08/04 07:38:34;;;;;;;9.20;5.00;;;;;;;31.76;42.70;99996.10;1584063;90;21126;-65
2023/08/04 07:41:04;;;;;;;6.90;4.47;;;;;;;31.87;42.46;99990.85;1584138;90;21082;-65
2023/08/04 07:43:33;;;;;;;10.15;5.40;;;;;;;32.04;42.67;99986.40;1583879;90;21106;-65
2023/08/04 07:46:02;;;;;;;7.20;4.47;;;;;;;32.33;42.31;99980.55;1583991;90;21525;-63
2023/08/04 07:48:31;;;;;;;8.25;4.12;;;;;;;32.50;41.88;99984.34;1592391;89;21168;-68
2023/08/04 07:51:01;;;;;;;5.78;4.17;;;;;;;32.62;41.11;99986.61;1582294;90;21041;-66
2023/08/04 07:53:31;;;;;;;7.37;4.20;;;;;;;32.77;40.79;99988.75;1582176;90;21157;-64
2023/08/04 07:56:00;;;;;;;26.73;5.17;;;;;;;33.03;40.33;100001.72;1583189;91;21573;-65
2023/08/04 07:58:31;;;;;;;7.47;3.77;;;;;;;33.32;39.22;100000.63;1597897;87;21489;-65
2023/08/04 08:01:03;;;;;;;5.47;3.80;;;;;;;33.56;38.21;100001.95;1607911;89;21070;-66
2023/08/04 08:03:33;;;;;;;11.50;4.05;;;;;;;33.75;37.96;99995.59;1629825;88;21529;-63
2023/08/04 08:06:02;;;;;;;7.35;3.75;;;;;;;33.92;37.64;100004.44;1624913;88;21589;-64
2023/08/04 08:08:31;;;;;;;7.85;3.70;;;;;;;34.11;36.85;100000.30;1613351;89;21486;-64
2023/08/04 08:11:03;;;;;;;10.58;4.78;;;;;;;34.32;36.53;99995.19;1589356;90;21504;-65
2023/08/04 08:13:33;;;;;;;17.05;4.72;;;;;;;34.46;36.72;99998.17;1601831;89;21040;-63
2023/08/04 08:16:17;;;;;;;15.78;4.25;;;;;;;34.56;36.75;100003.33;1609402;89;21127;-65
2023/08/04 08:18:48;;;;;;;5.03;3.70;;;;;;;34.64;35.54;99996.61;1609840;88;21057;-64
2023/08/04 08:21:17;;;;;;;7.47;3.17;;;;;;;34.68;35.01;99997.53;1609613;89;21118;-64
2023/08/04 08:23:46;;;;;;;9.38;4.15;;;;;;;34.79;34.70;100004.30;1594151;89;21102;-64
2023/08/04 08:26:15;;;;;;;5.72;3.80;;;;;;;34.77;34.26;100002.42;1583467;89;21562;-63
2023/08/04 08:28:44;;;;;;;12.47;3.92;;;;;;;34.73;34.61;100006.37;1591585;89;21273;-65
2023/08/04 08:31:14;;;;;;;11.83;4.17;;;;;;;34.72;35.44;100006.98;1594930;90;21055;-64
2023/08/04 08:33:43;;;;;;;11.30;4.20;;;;;;;34.87;35.58;100009.00;1595182;90;21074;-64
2023/08/04 08:36:12;;;;;;;8.60;3.33;;;;;;;34.98;35.69;100004.15;1595023;90;21099;-65
2023/08/04 08:38:41;;;;;;;5.00;3.22;;;;;;;35.13;34.40;100004.13;1594916;90;21035;-64
2023/08/04 08:41:13;;;;;;;16.85;4.40;;;;;;;35.13;34.49;100004.73;1595053;90;21096;-63
2023/08/04 08:43:44;;;;;;;7.00;3.52;;;;;;;35.09;35.28;100003.20;1595167;90;21174;-65
2023/08/04 08:46:13;;;;;;;9.20;4.28;;;;;;;35.19;35.83;100007.52;1594934;89;21060;-64
2023/08/04 08:48:47;;;;;;;7.40;4.17;;;;;;;35.34;34.89;100009.51;1595101;89;21086;-64
2023/08/04 08:51:19;;;;;;;4.35;3.70;;;;;;;35.46;34.34;100013.63;1595165;89;21134;-62
2023/08/04 08:53:49;;;;;;;8.63;3.70;;;;;;;35.46;33.27;100015.66;1594943;90;21098;-66
2023/08/04 08:56:17;;;;;;;13.83;10.00;;;;;;;35.10;33.99;100017.66;1594926;89;21084;-66
2023/08/04 08:58:46;;;;;;;6.28;4.17;;;;;;;34.96;34.80;100017.34;1592703;90;21089;-63
2023/08/04 09:01:16;;;;;;;16.60;4.40;;;;;;;34.98;34.82;100016.97;1623159;88;21060;-65
2023/08/04 09:03:46;;;;;;;27.60;4.92;;;;;;;35.00;34.68;100018.84;1623009;88;21452;-65
2023/08/04 09:06:16;;;;;;;15.23;4.62;;;;;;;34.86;35.59;100017.91;1623219;88;21150;-65
2023/08/04 09:08:45;;;;;;;12.80;4.33;;;;;;;34.96;35.32;100013.89;1623185;88;21079;-66
2023/08/04 09:11:14;;;;;;;7.72;4.80;;;;;;;35.09;34.74;100009.49;1623056;88;21098;-65
2023/08/04 09:13:45;;;;;;;7.97;3.50;;;;;;;35.13;35.33;100016.13;1623057;88;21156;-66
2023/08/04 09:16:15;;;;;;;5.42;3.50;;;;;;;35.20;34.06;100021.38;1592628;90;21132;-65
2023/08/04 09:18:45;;;;;;;17.45;4.60;;;;;;;35.13;33.28;100011.25;1623206;88;21075;-63
2023/08/04 09:21:13;;;;;;;6.35;3.40;;;;;;;34.95;33.56;100014.27;1622966;88;21553;-64
2023/08/04 09:23:48;;;;;;;6.10;3.30;;;;;;;34.82;33.73;100014.98;1623123;88;21169;-65
2023/08/04 09:26:17;;;;;;;5.45;3.75;;;;;;;34.76;34.32;100009.31;1623249;88;21143;-65
2023/08/04 09:28:48;;;;;;;6.47;3.80;;;;;;;34.71;35.18;100011.62;1585690;90;21157;-66
2023/08/04 09:31:18;;;;;;;6.30;3.92;;;;;;;34.55;35.48;100014.48;1581119;91;21125;-66
2023/08/04 09:33:47;;;;;;;8.13;4.08;;;;;;;34.44;35.74;100014.78;1609217;89;21027;-66
2023/08/04 09:36:17;;;;;;;6.50;4.00;;;;;;;34.32;36.16;100009.41;1608977;89;21066;-67
2023/08/04 09:38:46;;;;;;;5.87;3.45;;;;;;;34.18;36.25;100011.86;1608982;89;21071;-65
2023/08/04 09:41:17;;;;;;;8.43;3.65;;;;;;;34.08;36.18;100015.23;1550025;89;21055;-65
2023/08/04 09:43:48;;;;;;;5.08;3.72;;;;;;;33.99;36.03;100015.41;1581082;89;21143;-66
2023/08/04 09:46:18;;;;;;;7.58;3.37;;;;;;;33.87;35.87;100013.23;1609106;89;21157;-66
2023/08/04 09:48:48;;;;;;;6.97;3.65;;;;;;;33.76;35.79;100010.63;1581186;89;21506;-66
2023/08/04 09:51:21;;;;;;;5.30;3.50;;;;;;;33.59;36.10;100017.45;1609247;89;21082;-66
2023/08/04 09:53:50;;;;;;;9.10;3.52;;;;;;;33.47;36.21;100010.41;1609096;89;21578;-66
2023/08/04 09:56:20;;;;;;;4.58;3.20;;;;;;;33.38;36.78;100013.39;1581130;89;21094;-67
2023/08/04 09:58:49;;;;;;;6.72;3.90;;;;;;;33.38;36.60;100014.81;1584673;89;21094;-66
2023/08/04 10:01:18;;;;;;;7.42;3.60;;;;;;;33.39;36.48;100022.14;1583243;91;21138;-66
2023/08/04 10:03:54;;;;;;;4.53;3.40;;;;;;;33.37;36.65;100018.25;1583432;90;21150;-67
2023/08/04 10:06:26;;;;;;;4.50;3.70;;;;;;;33.34;36.64;100018.97;1583651;90;21520;-67
2023/08/04 10:08:55;;;;;;;3.90;3.47;;;;;;;33.34;36.94;100020.98;1583555;91;21063;-66
2023/08/04 10:11:23;;;;;;;6.75;3.10;;;;;;;33.35;36.43;100025.48;1583522;89;21147;-66
2023/08/04 10:13:54;;;;;;;4.83;3.30;;;;;;;33.33;36.64;100019.33;1583414;91;21098;-66
2023/08/04 10:16:28;;;;;;;7.47;4.08;;;;;;;33.29;36.24;100026.29;1583850;90;21095;-64
2023/08/04 10:19:04;;;;;;;8.35;3.70;;;;;;;33.22;36.74;100026.08;1583072;91;21074;-66
2023/08/04 10:21:41;;;;;;;8.40;3.62;;;;;;;33.11;36.65;100024.88;1583758;90;21122;-65
2023/08/04 10:24:12;;;;;;;8.50;3.50;;;;;;;33.04;36.64;100034.01;1583151;89;21079;-65
2023/08/04 10:26:51;;;;;;;11.20;4.12;;;;;;;33.00;37.01;100035.91;1583698;89;21084;-65
2023/08/04 10:29:20;;;;;;;4.45;3.55;;;;;;;32.97;37.11;100026.69;1591141;89;21117;-66
2023/08/04 10:31:56;;;;;;;6.92;3.37;;;;;;;33.01;37.53;100027.63;1570687;90;21090;-65
2023/08/04 10:34:43;;;;;;;5.92;3.40;;;;;;;33.07;36.59;100031.05;1595099;90;21491;-65
2023/08/04 10:37:17;;;;;;;4.22;3.50;;;;;;;33.00;36.06;100029.41;1595230;90;21094;-65
2023/08/04 10:39:58;;;;;;;8.10;3.50;;;;;;;32.98;36.71;100036.86;1594994;89;21162;-66
2023/08/04 10:42:28;;;;;;;4.05;2.75;;;;;;;32.99;36.93;100038.52;1595125;90;21052;-66
2023/08/04 10:45:08;;;;;;;4.12;3.20;;;;;;;33.00;35.98;100032.24;1595068;90;21040;-66
2023/08/04 10:47:47;;;;;;;6.70;3.58;;;;;;;32.98;36.46;100025.50;1590099;90;21042;-65
2023/08/04 10:50:18;;;;;;;6.67;3.30;;;;;;;32.93;37.14;100035.68;1568048;90;21107;-65
2023/08/04 10:52:48;;;;;;;5.20;3.17;;;;;;;32.92;36.61;100038.28;1595242;90;21110;-65
2023/08/04 10:55:17;;;;;;;6.97;2.87;;;;;;;32.94;35.88;100035.09;1602992;89;21586;-65
2023/08/04 10:57:46;;;;;;;7.78;3.87;;;;;;;32.91;35.29;100035.20;1620178;88;21523;-65
2023/08/04 11:00:16;;;;;;;3.70;2.75;;;;;;;32.92;35.30;100026.10;1623132;88;21594;-66
2023/08/04 11:02:45;;;;;;;4.25;2.85;;;;;;;32.97;35.41;100035.20;1622902;88;21463;-66
2023/08/04 11:05:14;;;;;;;4.47;2.77;;;;;;;32.99;35.65;100034.25;1623037;88;21524;-62
2023/08/04 11:07:46;;;;;;;4.20;3.45;;;;;;;33.01;35.90;100033.89;1623396;88;21507;-67
2023/08/04 11:10:16;;;;;;;3.98;3.00;;;;;;;33.03;35.92;100038.03;1623261;88;21032;-63
2023/08/04 11:12:46;;;;;;;3.95;2.75;;;;;;;32.99;35.22;100034.84;1623052;88;21174;-65
2023/08/04 11:15:16;;;;;;;5.03;2.98;;;;;;;32.98;35.31;100031.77;1623184;88;21051;-66
2023/08/04 11:17:45;;;;;;;5.35;3.42;;;;;;;32.94;35.84;100031.66;1623113;88;21166;-65
2023/08/04 11:20:15;;;;;;;4.00;2.98;;;;;;;32.93;36.34;100039.11;1623351;88;21076;-64
2023/08/04 11:22:46;;;;;;;5.08;3.30;;;;;;;32.85;36.88;100035.81;1623285;88;21103;-65
2023/08/04 11:25:18;;;;;;;6.37;3.40;;;;;;;32.78;37.63;100046.34;1622952;88;21040;-65
2023/08/04 11:27:47;;;;;;;8.38;3.72;;;;;;;32.68;38.10;100039.69;1601451;88;21146;-66
2023/08/04 11:30:17;;;;;;;7.80;4.15;;;;;;;32.63;38.02;100045.59;1605652;88;21114;-64
2023/08/04 11:32:54;;;;;;;3.80;3.30;;;;;;;32.61;38.05;100044.53;1604673;89;21031;-65
2023/08/04 11:35:20;;;;;;;6.92;3.47;;;;;;;32.60;38.35;100042.05;1604353;89;21094;-65
2023/08/04 11:37:50;;;;;;;5.10;3.50;;;;;;;32.59;38.49;100046.07;1604604;89;21099;-64
2023/08/04 11:40:23;;;;;;;6.25;3.77;;;;;;;32.61;38.28;100046.55;1604527;89;21090;-67
2023/08/04 11:42:55;;;;;;;8.35;4.20;;;;;;;32.63;38.48;100047.02;1604617;89;21115;-65